Bordeaux-Mérignac Airport

LFBD · Gironde, Nouvelle-Aquitaine, 法国

罗盘
风向 的 风向 090° Bordeaux-Mérignac Airport 5/23
风: 3 kt, 1 beaufort

2 kt

2 kt
改变
0 1.000 2.000 3.000 4.000 5.000
没有观察到明显的云
METAR LFBD 291800Z AUTO 09003KT 9999 NSC 08/07 Q1020 NOSIG

METAR Bordeaux-Mérignac Airport - LFBD/BOD

Bordeaux-Mérignac Airport是,法国中的大型机场。 该机场有2条跑道: 5/23 和 11/29. 该领域的国际民航组织标志是LFBD 它的国际航空运输协会代码是BOD.

这份报告是针对2022年11月29日 19:00, 当地时间在Bordeaux-Mérignac Airport进行的。

机场观察

风向为090°,速度为3 kt。

可见度为10 km 或者更多。

有没有观察到明显的云。 没有观察到天花板。

温度为8 °C,阵风为6 °C。 露点为7 °C,相对湿度为93%。 海平面上的气压为1020 hPa (QNH)。

白天

今天,太阳从08:17升起,在17:24降落。 这适用于Bordeaux-Mérignac Airport,世界夏令时可能有所不同。 当地时间与世界标准时间之间的时差为+1 小时。 当前,没有夏令时有效。

公司介绍

在这个机场,你可以找到飞行俱乐部。 本场上唯一已知的公司是CAPAM。

体会

到Vliegles.nl去找飞行课程,跳伞和其他飞行体验。 浏览页面,了解Bordeaux-Mérignac Airport附近所有可用的活动。 你也可以使用搜索功能来寻找你所在地附近的特定飞行课程、跳伞或其他飞行体验。

跑道

Id 标题 侧风 逆风 侧风 %
5/23 046°-226° 2 kt 2 kt 69 %
11/29 107°-287° 3 kt 29 %

逆风成分最大的方向会被突出显示,并用于横风计算。 这并不一定意味着这个方向在使用。

乌云

- NSC 没有观察到明显的云

温度 & 天气

温度 8 °C
露点 7 °C
相对湿度 93%
风寒 6 °C
Kp-index 0 (0-9)

白天

日出
08:17 (13:11)
中午
12:51
日落
17:24

小工具

你想在你的网站上有一个关于Bordeaux-Mérignac Airport的当前航空天气(METAR)的小部件吗?

显示HTML代码

我们和第三方通过cookies跟踪您在我们网站上的互联网行为。如果你继续,我们认为你同意我们的饼干政策